createdAt,value
2023-03-23T15:58:15.949Z,15.55
2023-03-23T16:00:47.146Z,15.55
2023-03-23T16:03:20.901Z,15.55
2023-03-23T16:05:48.713Z,15.51
2023-03-23T16:08:16.642Z,15.46
2023-03-23T16:10:44.882Z,15.52
2023-03-23T16:13:12.948Z,15.54
2023-03-23T16:15:40.712Z,15.47
2023-03-23T16:18:17.007Z,15.42
2023-03-23T16:20:44.882Z,15.44
2023-03-23T16:23:12.653Z,15.49
2023-03-23T16:25:40.599Z,15.43
2023-03-23T16:28:12.335Z,15.35
2023-03-23T16:30:43.611Z,15.39
2023-03-23T16:33:12.749Z,15.32
2023-03-23T16:35:40.957Z,15.29
2023-03-23T16:38:09.397Z,15.25
2023-03-23T16:40:37.576Z,15.24
2023-03-23T16:43:08.359Z,15.28
2023-03-23T16:45:43.255Z,15.24
2023-03-23T16:48:14.779Z,15.25
2023-03-23T16:50:43.603Z,15.19
2023-03-23T16:53:11.774Z,15.19
2023-03-23T16:55:40.600Z,15.16
2023-03-23T16:58:17.011Z,15.16
2023-03-23T17:00:48.015Z,15.19
2023-03-23T17:03:17.362Z,15.13
2023-03-23T17:05:46.235Z,15.11
2023-03-23T17:08:14.285Z,15.10
2023-03-23T17:10:43.689Z,15.09
2023-03-23T17:13:11.626Z,15.07
2023-03-23T17:15:39.926Z,15.11
2023-03-23T17:18:08.135Z,15.04
2023-03-23T17:20:37.343Z,14.96
2023-03-23T17:23:05.883Z,15.02
2023-03-23T17:25:33.738Z,15.06
2023-03-23T17:28:05.719Z,15.07
2023-03-23T17:30:34.179Z,15.05
2023-03-23T17:33:01.946Z,15.11
2023-03-23T17:35:29.807Z,15.05
2023-03-23T17:37:59.081Z,15.01
2023-03-23T17:40:27.292Z,14.98
2023-03-23T17:42:55.885Z,15.09
2023-03-23T17:45:24.357Z,15.01
2023-03-23T17:47:52.867Z,14.87
2023-03-23T17:50:21.040Z,14.79
2023-03-23T17:52:49.942Z,14.82
2023-03-23T17:55:19.193Z,15.03
2023-03-23T17:57:46.933Z,14.92
2023-03-23T18:00:15.788Z,15.04
2023-03-23T18:02:43.668Z,15.08
2023-03-23T18:05:11.848Z,15.07
2023-03-23T18:07:39.655Z,15.08
2023-03-23T18:10:11.881Z,15.07
2023-03-23T18:12:42.944Z,15.02
2023-03-23T18:15:11.579Z,15.06
2023-03-23T18:17:39.556Z,14.95
2023-03-23T18:20:08.940Z,14.95
2023-03-23T18:22:36.810Z,14.88
2023-03-23T18:25:05.215Z,14.93
2023-03-23T18:27:33.166Z,14.89
2023-03-23T18:30:02.713Z,14.87
2023-03-23T18:32:30.480Z,14.98
2023-03-23T18:34:58.382Z,14.97
2023-03-23T18:37:26.667Z,15.03
2023-03-23T18:39:54.571Z,14.98
2023-03-23T18:42:22.480Z,14.89
2023-03-23T18:44:50.187Z,14.95
2023-03-23T18:47:19.259Z,14.90
2023-03-23T18:49:51.084Z,14.89
2023-03-23T18:52:19.107Z,14.93
2023-03-23T18:54:46.899Z,14.79
2023-03-23T18:57:15.191Z,14.72
2023-03-23T18:59:43.014Z,14.73
2023-03-23T19:02:11.779Z,14.73
2023-03-23T19:04:41.076Z,14.65
2023-03-23T19:07:08.773Z,14.60
2023-03-23T19:09:36.886Z,14.55
2023-03-23T19:12:04.726Z,14.52
2023-03-23T19:14:32.549Z,14.62
2023-03-23T19:17:00.383Z,14.63
2023-03-23T19:19:28.352Z,14.58
2023-03-23T19:21:57.356Z,14.54
2023-03-23T19:24:26.277Z,14.57
2023-03-23T19:26:54.053Z,14.56
2023-03-23T19:31:52.588Z,14.50
2023-03-23T19:34:21.740Z,14.48
2023-03-23T19:36:55.044Z,14.54
2023-03-23T19:39:28.560Z,14.58
2023-03-23T19:41:56.767Z,14.55
2023-03-23T19:44:25.466Z,14.48
2023-03-23T19:46:54.518Z,14.46
2023-03-23T19:49:22.503Z,14.42
2023-03-23T19:51:50.426Z,14.42
2023-03-23T19:54:18.110Z,14.42
2023-03-23T19:56:47.863Z,14.38
2023-03-23T19:59:16.639Z,14.38
2023-03-23T20:01:45.352Z,14.35
2023-03-23T20:04:13.380Z,14.37
2023-03-23T20:06:41.292Z,14.39
2023-03-23T20:09:09.358Z,14.42
2023-03-23T20:11:37.409Z,14.48
2023-03-23T20:14:07.025Z,14.45
2023-03-23T20:16:34.874Z,14.48
2023-03-23T20:19:04.914Z,14.51
2023-03-23T20:21:33.704Z,14.44
2023-03-23T20:24:01.621Z,14.56
2023-03-23T20:26:32.179Z,14.44
2023-03-23T20:29:00.602Z,14.55
2023-03-23T20:31:33.132Z,14.47
2023-03-23T20:34:08.428Z,14.51
2023-03-23T20:36:40.505Z,14.44
2023-03-23T20:39:12.122Z,14.38
2023-03-23T20:41:40.573Z,14.40
2023-03-23T20:44:13.936Z,14.35
2023-03-23T20:46:43.488Z,14.29
2023-03-23T20:49:11.433Z,14.25
2023-03-23T20:51:42.953Z,14.21
2023-03-23T20:54:10.952Z,14.19
2023-03-23T20:56:40.546Z,14.12
2023-03-23T20:59:08.413Z,14.11
2023-03-23T21:01:37.034Z,14.13
2023-03-23T21:04:08.154Z,14.17
2023-03-23T21:06:37.228Z,14.16
2023-03-23T21:09:06.186Z,14.09
2023-03-23T21:11:35.286Z,14.09
2023-03-23T21:14:03.864Z,14.05
2023-03-23T21:16:32.025Z,14.00
2023-03-23T21:19:00.299Z,14.01
2023-03-23T21:21:29.933Z,14.02
2023-03-23T21:23:57.988Z,14.05
2023-03-23T21:26:28.508Z,14.09
2023-03-23T21:28:59.999Z,13.92
2023-03-23T21:31:30.727Z,13.83
2023-03-23T21:33:58.982Z,13.85
2023-03-23T21:36:27.996Z,13.89
2023-03-23T21:38:57.971Z,13.82
2023-03-23T21:41:27.020Z,13.90
2023-03-23T21:43:54.990Z,13.91
2023-03-23T21:46:24.440Z,13.91
2023-03-23T21:48:52.773Z,13.92
2023-03-23T21:51:24.417Z,13.89
2023-03-23T21:53:54.116Z,13.93
2023-03-23T21:56:28.261Z,13.90
2023-03-23T21:58:56.573Z,13.89
2023-03-23T22:01:25.333Z,13.89
2023-03-23T22:03:53.211Z,13.99
2023-03-23T22:06:26.687Z,13.99
2023-03-23T22:08:55.326Z,13.98
2023-03-23T22:11:28.213Z,13.98
2023-03-23T22:13:58.219Z,14.05
2023-03-23T22:16:27.178Z,13.98
2023-03-23T22:18:56.968Z,13.96
2023-03-23T22:21:27.769Z,13.85
2023-03-23T22:23:57.876Z,13.78
2023-03-23T22:26:28.452Z,13.83
2023-03-23T22:28:56.421Z,13.75
2023-03-23T22:31:26.673Z,13.75
2023-03-23T22:33:56.629Z,13.81
2023-03-23T22:36:26.427Z,13.87
2023-03-23T22:38:55.037Z,13.73
2023-03-23T22:41:25.191Z,13.83
2023-03-23T22:43:54.766Z,13.75
2023-03-23T22:46:22.967Z,13.87
2023-03-23T22:48:50.981Z,13.77
2023-03-23T22:51:19.914Z,13.76
2023-03-23T22:53:48.364Z,13.76
2023-03-23T22:56:16.687Z,13.82
2023-03-23T22:58:44.793Z,13.91
2023-03-23T23:01:16.345Z,13.87
2023-03-23T23:03:44.418Z,13.89
2023-03-23T23:06:13.542Z,14.02
2023-03-23T23:08:42.820Z,14.15
2023-03-23T23:11:13.655Z,14.06
2023-03-23T23:13:41.944Z,14.00
2023-03-23T23:16:11.420Z,14.06
2023-03-23T23:18:41.343Z,14.02
2023-03-23T23:21:11.705Z,14.01
2023-03-23T23:23:40.198Z,14.12
2023-03-23T23:26:08.597Z,14.11
2023-03-23T23:28:37.332Z,14.06
2023-03-23T23:31:06.329Z,13.94
2023-03-23T23:33:34.482Z,14.00
2023-03-23T23:36:04.063Z,14.07
2023-03-23T23:38:31.984Z,14.05
2023-03-23T23:40:59.941Z,14.07
2023-03-23T23:43:27.852Z,13.99
2023-03-23T23:45:55.783Z,14.01
2023-03-23T23:48:23.785Z,13.94
2023-03-23T23:50:51.890Z,13.92
2023-03-23T23:53:22.933Z,13.97
2023-03-23T23:55:51.062Z,13.89
2023-03-23T23:58:19.326Z,13.90
